Time;durP1;ratioP1;P1;durP2;ratioP2;P2;SDS_P1;SDS_P2;PMS_P1;PMS_P2;Temp;Humidity;BMP_temperature;BMP_pressure;BME280_temperature;BME280_humidity;BME280_pressure;Samples;Min_cycle;Max_cycle;Signal;HPM_P1;HPM_P2
2023/11/07 00:01:23;;;;;;;1.27;1.10;;;6.30;99.90;;;;;;4974072;28;20226;-66
2023/11/07 00:03:50;;;;;;;1.40;1.10;;;6.20;99.90;;;;;;4973757;28;20672;-66
2023/11/07 00:06:16;;;;;;;1.05;0.90;;;6.20;99.90;;;;;;4973661;28;20211;-65
2023/11/07 00:08:43;;;;;;;1.20;1.10;;;6.20;99.90;;;;;;4973354;28;20230;-65
2023/11/07 00:11:10;;;;;;;1.20;0.90;;;6.20;99.90;;;;;;4973962;28;20232;-66
2023/11/07 00:13:38;;;;;;;1.10;0.95;;;6.20;99.90;;;;;;4973730;28;20204;-65
2023/11/07 04:32:20;;;;;;;1.00;0.90;;;5.30;99.90;;;;;;5211136;23;20229;-67
2023/11/07 04:34:47;;;;;;;1.58;1.08;;;5.30;99.90;;;;;;4973400;28;20212;-68
2023/11/07 04:37:14;;;;;;;0.80;0.70;;;5.30;99.90;;;;;;4972922;28;20206;-66
2023/11/07 04:39:41;;;;;;;2.17;1.10;;;5.30;99.90;;;;;;4973442;28;20251;-66
2023/11/07 04:42:09;;;;;;;4.88;2.00;;;5.20;99.90;;;;;;4973109;28;20232;-67
2023/11/07 04:44:36;;;;;;;1.65;1.05;;;5.20;99.90;;;;;;4972831;28;20207;-67
2023/11/07 04:47:05;;;;;;;1.35;1.00;;;5.10;99.90;;;;;;4972270;28;20311;-66
2023/11/07 04:49:33;;;;;;;1.10;0.85;;;5.10;99.90;;;;;;4971477;28;20220;-66
2023/11/07 04:52:00;;;;;;;1.05;0.85;;;5.10;99.90;;;;;;4972922;28;20607;-66
2023/11/07 04:54:27;;;;;;;1.00;0.90;;;5.00;99.90;;;;;;4972804;28;20213;-66
2023/11/07 04:56:54;;;;;;;0.80;0.70;;;5.00;99.90;;;;;;4972200;28;20634;-65
2023/11/07 04:59:22;;;;;;;0.90;0.80;;;4.90;99.90;;;;;;4972300;28;20716;-66
2023/11/07 05:01:49;;;;;;;0.90;0.70;;;4.90;99.90;;;;;;4972366;28;20219;-65
2023/11/07 05:04:16;;;;;;;1.00;0.80;;;4.80;99.90;;;;;;4972100;28;20307;-66
2023/11/07 05:06:44;;;;;;;1.20;0.80;;;4.80;99.90;;;;;;4972274;28;20214;-66
2023/11/07 05:09:12;;;;;;;1.38;1.08;;;4.80;99.90;;;;;;4972000;28;20240;-65
2023/11/07 05:11:39;;;;;;;2.03;1.75;;;4.70;99.90;;;;;;4972843;28;20235;-66
2023/11/07 05:14:07;;;;;;;1.10;1.00;;;4.70;99.90;;;;;;4972080;28;20216;-68
2023/11/07 05:16:34;;;;;;;1.40;1.00;;;4.60;99.90;;;;;;4972640;28;20629;-66
2023/11/07 05:19:01;;;;;;;1.50;1.00;;;4.60;99.90;;;;;;4971863;28;20200;-66
2023/11/07 05:21:28;;;;;;;1.80;1.00;;;4.60;99.90;;;;;;4972581;28;20254;-70
2023/11/07 05:23:56;;;;;;;1.23;1.13;;;4.50;99.90;;;;;;4972378;28;20696;-69
2023/11/07 05:26:23;;;;;;;1.15;0.93;;;4.50;99.90;;;;;;4972322;28;20410;-67
2023/11/07 05:28:50;;;;;;;1.45;0.82;;;4.50;99.90;;;;;;4972138;28;20232;-67
2023/11/07 05:31:17;;;;;;;1.25;0.93;;;4.40;99.90;;;;;;4971945;28;20241;-67
2023/11/07 05:33:44;;;;;;;1.08;0.98;;;4.50;99.90;;;;;;4972310;28;20255;-66
2023/11/07 05:36:11;;;;;;;1.48;0.90;;;4.40;99.90;;;;;;4972152;28;20211;-66
2023/11/07 05:38:38;;;;;;;1.05;0.95;;;4.40;99.90;;;;;;4971618;28;20271;-70
2023/11/07 05:41:06;;;;;;;2.65;1.10;;;4.30;99.90;;;;;;4970344;28;20231;-69
2023/11/07 05:43:33;;;;;;;0.90;0.80;;;4.30;99.90;;;;;;4970827;28;20200;-69
2023/11/07 05:45:59;;;;;;;2.25;1.00;;;4.30;99.90;;;;;;4971078;28;20220;-70
2023/11/07 05:48:26;;;;;;;0.90;0.80;;;4.30;99.90;;;;;;4971919;28;20211;-69
2023/11/07 05:50:53;;;;;;;1.75;1.05;;;4.30;99.90;;;;;;4972130;28;20223;-68
2023/11/07 05:53:19;;;;;;;0.90;0.80;;;4.30;99.90;;;;;;4972176;28;20317;-69
2023/11/07 05:55:45;;;;;;;1.10;1.00;;;4.30;99.90;;;;;;4971982;28;20215;-69
2023/11/07 05:58:14;;;;;;;1.48;1.38;;;4.30;99.90;;;;;;4971692;28;20759;-69
2023/11/07 06:00:40;;;;;;;1.05;0.93;;;4.30;99.90;;;;;;4966132;28;20224;-68
2023/11/07 06:03:08;;;;;;;0.93;0.82;;;4.40;99.90;;;;;;4971963;28;20668;-66
2023/11/07 06:05:35;;;;;;;1.35;1.05;;;4.40;99.90;;;;;;4971887;28;20200;-66
2023/11/07 06:08:02;;;;;;;2.00;1.20;;;4.40;99.90;;;;;;4971542;28;20218;-66
2023/11/07 06:10:28;;;;;;;1.33;1.23;;;4.40;99.90;;;;;;4971831;28;20623;-67
2023/11/07 06:12:56;;;;;;;1.25;0.85;;;4.40;99.90;;;;;;4971832;28;20645;-66
2023/11/07 06:15:24;;;;;;;1.00;0.90;;;4.50;99.90;;;;;;4971679;28;20232;-70
2023/11/07 06:17:51;;;;;;;2.85;1.50;;;4.40;99.90;;;;;;4971343;28;20203;-67
2023/11/07 06:20:18;;;;;;;1.40;1.20;;;4.50;99.90;;;;;;4971716;28;20212;-69
2023/11/07 06:22:45;;;;;;;1.30;1.10;;;4.40;99.90;;;;;;4971757;28;20667;-68
2023/11/07 06:25:13;;;;;;;1.90;1.20;;;4.40;99.90;;;;;;4971691;28;20239;-68
2023/11/07 06:27:40;;;;;;;3.90;1.13;;;4.40;99.90;;;;;;4971179;28;20331;-68
2023/11/07 06:30:09;;;;;;;1.35;1.25;;;4.40;99.90;;;;;;4971567;28;20231;-68
2023/11/07 06:32:37;;;;;;;1.25;0.98;;;4.40;99.90;;;;;;4971553;28;20231;-66
2023/11/07 06:35:06;;;;;;;3.58;1.30;;;4.40;99.90;;;;;;4971674;28;20212;-67
2023/11/07 06:37:33;;;;;;;1.98;1.40;;;4.40;99.90;;;;;;4971196;28;20281;-74
2023/11/07 06:40:05;;;;;;;1.10;1.00;;;4.40;99.90;;;;;;4971516;28;20211;-69
2023/11/07 06:42:31;;;;;;;1.63;1.10;;;4.40;99.90;;;;;;4970180;28;20310;-69
2023/11/07 06:44:58;;;;;;;1.73;1.10;;;4.40;99.90;;;;;;4971300;28;20208;-67
2023/11/07 06:47:25;;;;;;;1.50;1.15;;;4.40;99.90;;;;;;4970400;28;20219;-75
2023/11/07 06:49:53;;;;;;;1.38;1.15;;;4.40;99.90;;;;;;4971565;28;20243;-73
2023/11/07 06:52:20;;;;;;;1.13;1.02;;;4.40;99.90;;;;;;4972380;28;20235;-69
2023/11/07 06:54:47;;;;;;;1.33;1.23;;;4.40;99.90;;;;;;4974969;28;20234;-71
2023/11/07 06:57:14;;;;;;;1.80;1.10;;;4.50;99.90;;;;;;4974573;28;20231;-73
2023/11/07 06:59:41;;;;;;;1.20;1.10;;;4.60;99.90;;;;;;4974954;28;20208;-72
2023/11/07 07:02:08;;;;;;;1.23;1.13;;;4.60;99.90;;;;;;4974963;28;20239;-68
2023/11/07 07:04:35;;;;;;;1.35;1.00;;;4.60;99.90;;;;;;4977296;28;20572;-68
2023/11/07 07:07:03;;;;;;;5.03;1.40;;;4.60;99.90;;;;;;4978071;28;20227;-68
2023/11/07 07:09:30;;;;;;;1.70;1.30;;;4.70;99.90;;;;;;4974786;28;20223;-67
2023/11/07 07:11:58;;;;;;;4.05;1.20;;;4.70;99.90;;;;;;4974962;28;20227;-67
2023/11/07 07:14:24;;;;;;;1.45;1.10;;;4.80;99.90;;;;;;4974773;28;20700;-67
2023/11/07 07:16:51;;;;;;;1.35;1.00;;;4.90;99.90;;;;;;4974799;28;20562;-67
2023/11/07 07:19:18;;;;;;;1.60;1.23;;;5.00;99.90;;;;;;4974518;28;20211;-70
2023/11/07 07:21:47;;;;;;;1.10;1.00;;;5.10;99.90;;;;;;4974887;28;20224;-72
2023/11/07 07:24:21;;;;;;;1.30;1.00;;;5.30;99.90;;;;;;4974742;28;20225;-71
2023/11/07 07:26:50;;;;;;;1.27;1.00;;;5.40;99.90;;;;;;4968599;28;20204;-70
2023/11/07 07:29:16;;;;;;;1.92;1.05;;;5.60;99.90;;;;;;4974254;28;20304;-70
2023/11/07 07:31:44;;;;;;;1.48;1.20;;;6.00;99.90;;;;;;4974688;28;20229;-72
2023/11/07 07:34:12;;;;;;;1.60;1.50;;;6.30;99.90;;;;;;4974676;28;20221;-71
2023/11/07 07:36:44;;;;;;;1.10;1.00;;;6.70;99.90;;;;;;4974540;28;20297;-73
2023/11/07 07:39:24;;;;;;;1.00;0.90;;;6.90;99.90;;;;;;4974288;28;20216;-72
2023/11/07 07:41:56;;;;;;;1.45;0.95;;;7.00;99.90;;;;;;4968925;28;20727;-76
2023/11/07 07:44:25;;;;;;;1.20;1.10;;;7.20;99.90;;;;;;4970847;28;20701;-73
2023/11/07 07:46:52;;;;;;;1.70;1.00;;;7.40;99.90;;;;;;4972519;28;20211;-70
2023/11/07 07:49:23;;;;;;;1.00;0.90;;;7.50;99.90;;;;;;4973721;28;20379;-71
2023/11/07 07:51:52;;;;;;;1.38;1.13;;;7.40;99.90;;;;;;4973707;28;20816;-70
2023/11/07 07:54:22;;;;;;;1.45;1.00;;;7.30;99.90;;;;;;4973587;28;20281;-71
2023/11/07 07:56:49;;;;;;;1.00;0.90;;;7.40;99.90;;;;;;4973694;28;20207;-71
2023/11/07 07:59:22;;;;;;;1.50;1.05;;;7.70;99.90;;;;;;4973620;28;20260;-71
2023/11/07 08:01:52;;;;;;;1.23;0.80;;;8.30;99.90;;;;;;4973965;28;20796;-73
2023/11/07 08:04:23;;;;;;;2.22;1.05;;;8.80;99.90;;;;;;4973088;28;20212;-71
2023/11/07 08:06:50;;;;;;;1.00;0.80;;;9.10;99.90;;;;;;4974345;28;20200;-68
2023/11/07 08:09:19;;;;;;;1.88;1.08;;;9.40;99.90;;;;;;4973814;28;20283;-73
2023/11/07 08:11:47;;;;;;;1.25;1.00;;;9.50;99.90;;;;;;4974086;28;20224;-71
2023/11/07 08:14:15;;;;;;;0.95;0.82;;;9.50;99.90;;;;;;4974282;28;20207;-67
2023/11/07 08:16:45;;;;;;;3.13;0.95;;;9.50;99.90;;;;;;4966803;28;20738;-67
2023/11/07 08:19:13;;;;;;;1.90;0.95;;;9.30;99.90;;;;;;4973923;28;20299;-68
2023/11/07 08:21:42;;;;;;;1.17;0.95;;;9.20;99.90;;;;;;4974008;28;20232;-69
2023/11/07 08:24:12;;;;;;;1.30;1.20;;;9.20;99.90;;;;;;4974380;28;20203;-69
2023/11/07 08:26:39;;;;;;;0.80;0.70;;;9.10;99.90;;;;;;4973774;28;20211;-69
2023/11/07 08:29:07;;;;;;;0.90;0.77;;;9.00;99.90;;;;;;4973949;28;20227;-68
2023/11/07 08:31:34;;;;;;;2.58;1.00;;;9.10;99.90;;;;;;4973741;28;20235;-69
2023/11/07 08:34:04;;;;;;;4.63;1.00;;;9.20;99.90;;;;;;4974000;28;20204;-68
2023/11/07 08:36:34;;;;;;;1.00;0.88;;;9.40;99.90;;;;;;4973472;28;20212;-68
2023/11/07 08:39:02;;;;;;;2.85;1.10;;;9.50;99.90;;;;;;4973521;28;20673;-68
2023/11/07 08:41:29;;;;;;;1.00;0.93;;;9.40;99.90;;;;;;4973795;28;20307;-67
2023/11/07 08:43:57;;;;;;;1.38;1.08;;;9.50;99.90;;;;;;4973346;28;20207;-65
2023/11/07 08:46:24;;;;;;;1.10;0.90;;;9.70;99.90;;;;;;4973337;28;20231;-66
2023/11/07 08:48:53;;;;;;;1.23;1.13;;;9.60;99.90;;;;;;4972391;28;20278;-68
2023/11/07 08:51:21;;;;;;;0.90;0.80;;;9.70;99.90;;;;;;4972936;28;20236;-67
2023/11/07 08:53:49;;;;;;;1.75;1.13;;;9.70;99.90;;;;;;4972631;28;20243;-68
2023/11/07 08:56:15;;;;;;;1.92;0.90;;;9.70;99.90;;;;;;4972963;28;20756;-70
2023/11/07 08:58:42;;;;;;;1.77;1.10;;;9.80;99.90;;;;;;4964947;28;20680;-69
2023/11/07 09:01:10;;;;;;;1.40;0.85;;;9.90;99.90;;;;;;4973141;28;20220;-69
2023/11/07 09:03:38;;;;;;;1.17;1.05;;;10.00;99.90;;;;;;4972820;28;20258;-69
2023/11/07 09:06:05;;;;;;;1.10;0.80;;;10.00;99.90;;;;;;4972909;28;20212;-68
2023/11/07 09:08:34;;;;;;;0.90;0.80;;;10.00;99.90;;;;;;4971397;28;20657;-68
2023/11/07 09:11:01;;;;;;;1.60;0.90;;;10.00;99.90;;;;;;4972696;28;20232;-67
2023/11/07 09:13:28;;;;;;;1.00;0.90;;;9.80;99.90;;;;;;4972584;28;20212;-67
2023/11/07 09:15:55;;;;;;;1.15;1.02;;;9.60;99.90;;;;;;4971856;28;20266;-68
2023/11/07 09:18:22;;;;;;;1.60;1.02;;;9.60;99.90;;;;;;4972484;28;20204;-70
2023/11/07 09:20:50;;;;;;;1.75;0.98;;;9.80;99.90;;;;;;4972490;28;20255;-71
2023/11/07 09:23:17;;;;;;;1.75;0.93;;;9.90;99.90;;;;;;4972951;28;20638;-70
2023/11/07 09:25:46;;;;;;;1.77;1.17;;;10.00;99.90;;;;;;4972473;28;20251;-70
2023/11/07 09:28:12;;;;;;;0.88;0.80;;;10.00;99.90;;;;;;4972610;28;20638;-68
2023/11/07 09:30:40;;;;;;;1.35;0.93;;;10.10;99.90;;;;;;4970762;28;20312;-68
2023/11/07 09:33:07;;;;;;;2.05;1.30;;;10.10;99.90;;;;;;4971975;28;20223;-67
2023/11/07 09:35:35;;;;;;;1.20;0.90;;;10.30;99.90;;;;;;4972083;28;20222;-69
2023/11/07 09:38:03;;;;;;;0.93;0.82;;;10.40;99.90;;;;;;4972129;28;20603;-69
2023/11/07 09:40:30;;;;;;;1.00;0.80;;;10.60;99.90;;;;;;4972667;28;20211;-67
2023/11/07 09:43:01;;;;;;;3.17;1.20;;;10.90;99.90;;;;;;4972401;28;20209;-68
2023/11/07 09:45:35;;;;;;;0.90;0.80;;;11.00;99.90;;;;;;4973079;28;20223;-68
2023/11/07 09:48:03;;;;;;;1.05;0.85;;;11.20;99.90;;;;;;4972796;28;20216;-69
2023/11/07 09:50:33;;;;;;;0.98;0.88;;;11.60;99.90;;;;;;4971747;28;20321;-69
2023/11/07 09:53:02;;;;;;;1.77;0.88;;;11.80;99.90;;;;;;4972209;28;20708;-69
2023/11/07 09:55:29;;;;;;;1.05;0.95;;;11.70;99.90;;;;;;4971978;28;20301;-69
2023/11/07 09:58:06;;;;;;;1.02;0.82;;;11.60;99.90;;;;;;4971388;28;20204;-69
2023/11/07 10:00:35;;;;;;;1.00;0.80;;;11.60;99.90;;;;;;4970734;28;20211;-68
2023/11/07 10:03:02;;;;;;;1.35;0.90;;;11.60;99.90;;;;;;4972227;28;20236;-68
2023/11/07 10:05:31;;;;;;;1.65;0.90;;;11.50;99.90;;;;;;4971940;28;20712;-66
2023/11/07 10:07:59;;;;;;;1.10;0.85;;;11.50;99.90;;;;;;4971511;28;20205;-67
2023/11/07 10:10:26;;;;;;;0.90;0.75;;;11.50;99.90;;;;;;4971845;28;20281;-69
2023/11/07 10:12:53;;;;;;;1.98;1.13;;;11.90;99.90;;;;;;4972043;28;20204;-70
2023/11/07 10:15:24;;;;;;;1.45;0.70;;;12.70;99.90;;;;;;4972188;28;20237;-69
2023/11/07 10:17:58;;;;;;;0.90;0.80;;;13.40;99.90;;;;;;4971290;28;20201;-69
2023/11/07 10:20:26;;;;;;;1.00;0.80;;;14.90;99.90;;;;;;4971898;28;20618;-71
2023/11/07 10:22:54;;;;;;;0.90;0.70;;;16.00;99.90;;;;;;4971315;28;20890;-70
2023/11/07 10:25:27;;;;;;;1.27;0.70;;;16.80;99.90;;;;;;4971716;28;20931;-70
2023/11/07 10:27:55;;;;;;;1.93;0.80;;;17.10;99.90;;;;;;4973144;28;20467;-67
2023/11/07 10:30:33;;;;;;;1.30;0.87;;;17.90;99.90;;;;;;4975073;28;20488;-67
2023/11/07 10:33:00;;;;;;;1.73;0.90;;;18.00;99.90;;;;;;4970228;28;20483;-67
2023/11/07 10:35:26;;;;;;;0.90;0.70;;;18.20;99.90;;;;;;4975709;28;20862;-67
2023/11/07 10:37:53;;;;;;;0.80;0.60;;;17.50;99.90;;;;;;4974908;28;20464;-67
2023/11/07 10:40:21;;;;;;;0.80;0.60;;;16.20;99.90;;;;;;4973489;28;20459;-67
2023/11/07 10:42:49;;;;;;;0.93;0.80;;;15.10;99.90;;;;;;4975189;28;20578;-67
2023/11/07 10:45:17;;;;;;;0.90;0.70;;;14.60;99.90;;;;;;4975484;28;20549;-67
2023/11/07 10:47:48;;;;;;;1.27;1.17;;;14.50;99.90;;;;;;4974741;28;20466;-67
2023/11/07 10:50:17;;;;;;;1.00;0.90;;;14.70;99.90;;;;;;4975642;28;20876;-67
2023/11/07 10:52:47;;;;;;;1.10;0.90;;;14.80;99.90;;;;;;4973719;28;20571;-67
2023/11/07 10:55:14;;;;;;;1.10;0.87;;;14.90;99.90;;;;;;4975436;28;20880;-67
2023/11/07 10:57:46;;;;;;;1.10;0.80;;;14.70;99.90;;;;;;4973097;28;20463;-67
2023/11/07 11:00:20;;;;;;;1.20;0.90;;;14.50;99.90;;;;;;4975400;28;20525;-67
2023/11/07 11:02:53;;;;;;;0.80;0.70;;;14.30;99.90;;;;;;4974133;28;20466;-67
2023/11/07 11:05:23;;;;;;;1.10;0.90;;;13.80;99.90;;;;;;4973534;28;20529;-67
2023/11/07 11:07:52;;;;;;;1.13;0.90;;;13.20;99.90;;;;;;4974165;28;24632;-67
2023/11/07 11:10:27;;;;;;;1.10;0.70;;;12.70;99.90;;;;;;4974782;28;20470;-67
2023/11/07 11:12:54;;;;;;;0.80;0.73;;;12.50;99.90;;;;;;4975036;28;20525;-66
2023/11/07 11:15:22;;;;;;;1.10;0.82;;;12.30;99.90;;;;;;4974817;28;20464;-66
2023/11/07 11:17:55;;;;;;;0.80;0.70;;;11.90;99.90;;;;;;4971638;28;20215;-66
2023/11/07 11:20:29;;;;;;;1.10;0.68;;;11.70;99.90;;;;;;4972222;28;20220;-66
2023/11/07 11:23:06;;;;;;;0.80;0.70;;;11.60;99.90;;;;;;4970425;28;20210;-66
2023/11/07 11:25:55;;;;;;;1.42;1.00;;;11.40;99.90;;;;;;4971143;28;20221;-66
2023/11/07 11:28:38;;;;;;;1.02;0.77;;;11.40;99.90;;;;;;4974000;28;20563;-66
2023/11/07 11:31:08;;;;;;;0.80;0.70;;;11.50;99.90;;;;;;4974491;28;20261;-66
2023/11/07 11:33:36;;;;;;;1.17;0.80;;;11.40;99.90;;;;;;4974636;28;20219;-66
2023/11/07 11:36:33;;;;;;;0.90;0.80;;;11.10;99.90;;;;;;4973972;28;20593;-69
2023/11/07 11:39:00;;;;;;;0.90;0.80;;;11.00;99.90;;;;;;4968506;28;20728;-66
2023/11/07 11:42:04;;;;;;;0.90;0.80;;;10.90;99.90;;;;;;4975498;28;20610;-68
2023/11/07 11:44:32;;;;;;;1.33;1.10;;;10.80;99.90;;;;;;4970491;28;20214;-67
2023/11/07 11:46:59;;;;;;;1.13;0.90;;;11.80;99.90;;;;;;4973977;28;20214;-67
2023/11/07 11:49:27;;;;;;;1.40;0.90;;;13.70;99.90;;;;;;4974600;28;20242;-67
2023/11/07 11:51:55;;;;;;;2.00;0.90;;;15.40;99.90;;;;;;4974168;28;20493;-68
2023/11/07 11:55:05;;;;;;;0.90;0.80;;;16.00;99.90;;;;;;4974575;28;20494;-66
2023/11/07 11:57:31;;;;;;;1.13;1.00;;;15.90;99.90;;;;;;4961138;28;20471;-67
2023/11/07 11:59:59;;;;;;;1.27;0.80;;;15.00;99.90;;;;;;4973914;28;20469;-68
2023/11/07 12:02:40;;;;;;;1.30;0.77;;;14.50;99.90;;;;;;4974566;28;20478;-68
2023/11/07 12:05:16;;;;;;;0.80;0.70;;;14.30;99.90;;;;;;4974170;28;20474;-68
2023/11/07 12:07:44;;;;;;;1.70;0.90;;;14.30;99.90;;;;;;4971254;28;20853;-69
2023/11/07 12:10:13;;;;;;;1.13;0.80;;;14.00;99.90;;;;;;4974418;28;20840;-68
2023/11/07 12:12:40;;;;;;;0.80;0.70;;;13.90;99.90;;;;;;4973973;28;20998;-68
2023/11/07 12:15:08;;;;;;;2.80;1.00;;;13.70;99.90;;;;;;4974185;28;20467;-69
2023/11/07 12:17:45;;;;;;;1.17;1.07;;;13.30;99.90;;;;;;4973536;28;20468;-69
2023/11/07 12:20:14;;;;;;;1.10;0.83;;;13.00;99.90;;;;;;4974273;28;20894;-69
2023/11/07 12:22:46;;;;;;;1.67;1.00;;;12.70;99.90;;;;;;4973044;28;20472;-68
2023/11/07 12:25:16;;;;;;;1.05;0.95;;;12.40;99.90;;;;;;4973168;28;20221;-68
2023/11/07 12:27:44;;;;;;;1.10;0.80;;;12.40;99.90;;;;;;4972604;28;20214;-69
2023/11/07 12:30:16;;;;;;;0.95;0.80;;;12.20;99.90;;;;;;4973327;28;20474;-69
2023/11/07 12:32:43;;;;;;;0.80;0.68;;;11.90;99.90;;;;;;4970149;28;20305;-69
2023/11/07 12:35:23;;;;;;;0.80;0.70;;;11.70;99.90;;;;;;4973132;28;20213;-68
2023/11/07 12:37:51;;;;;;;0.85;0.70;;;11.80;99.90;;;;;;4971497;28;20220;-67
2023/11/07 12:40:19;;;;;;;0.80;0.68;;;12.20;99.90;;;;;;4974217;28;20268;-68
2023/11/07 12:42:54;;;;;;;0.80;0.70;;;12.50;99.90;;;;;;4973446;28;20202;-68
2023/11/07 12:45:23;;;;;;;0.80;0.70;;;12.40;99.90;;;;;;4973660;28;20214;-69
2023/11/07 12:47:57;;;;;;;0.82;0.70;;;12.30;99.90;;;;;;4972630;28;20214;-69
2023/11/07 12:50:30;;;;;;;0.85;0.70;;;12.10;99.90;;;;;;4972961;28;20228;-69
2023/11/07 12:52:58;;;;;;;1.10;0.70;;;11.80;99.90;;;;;;4972801;28;20237;-67
2023/11/07 12:55:26;;;;;;;1.08;0.85;;;11.70;99.90;;;;;;4973396;28;20297;-67
2023/11/07 12:57:53;;;;;;;0.80;0.70;;;11.40;99.90;;;;;;4972437;28;20557;-67
2023/11/07 13:00:21;;;;;;;0.80;0.60;;;11.30;99.90;;;;;;4973179;28;20210;-66
2023/11/07 13:02:47;;;;;;;0.88;0.70;;;11.30;99.90;;;;;;4972769;28;20202;-69
2023/11/07 13:05:15;;;;;;;1.27;0.85;;;11.30;99.90;;;;;;4973973;28;20587;-67
2023/11/07 13:07:43;;;;;;;1.00;0.85;;;11.50;99.90;;;;;;4970429;28;20207;-68
2023/11/07 13:10:15;;;;;;;0.90;0.70;;;11.60;99.90;;;;;;4973129;28;20591;-65
2023/11/07 13:12:42;;;;;;;0.80;0.70;;;11.50;99.90;;;;;;4973040;28;20222;-66
2023/11/07 13:15:10;;;;;;;0.80;0.70;;;11.40;99.90;;;;;;4972790;28;20202;-66
2023/11/07 13:17:38;;;;;;;0.80;0.60;;;11.40;99.90;;;;;;4972377;28;20550;-66
2023/11/07 13:20:08;;;;;;;0.70;0.60;;;11.30;99.90;;;;;;4972835;28;20230;-68
2023/11/07 13:22:35;;;;;;;0.90;0.80;;;11.20;99.90;;;;;;4973078;28;20223;-69
2023/11/07 13:25:06;;;;;;;0.80;0.70;;;11.20;99.90;;;;;;4972829;28;20592;-67
2023/11/07 13:27:33;;;;;;;0.80;0.70;;;11.10;99.90;;;;;;4972283;28;20202;-69
2023/11/07 13:30:01;;;;;;;0.90;0.80;;;11.10;99.90;;;;;;4972599;28;20215;-70
2023/11/07 13:32:30;;;;;;;0.80;0.70;;;11.00;99.90;;;;;;4972324;28;20753;-67
2023/11/07 13:34:57;;;;;;;0.95;0.80;;;10.90;99.90;;;;;;4972177;28;20265;-68
2023/11/07 13:37:24;;;;;;;0.80;0.70;;;10.80;99.90;;;;;;4971813;28;20564;-68
2023/11/07 13:39:51;;;;;;;0.90;0.70;;;10.70;99.90;;;;;;4972365;28;20215;-67
2023/11/07 13:42:19;;;;;;;0.80;0.70;;;10.70;99.90;;;;;;4972866;28;20312;-70
2023/11/07 13:44:46;;;;;;;1.42;0.73;;;10.60;99.90;;;;;;4971728;28;20208;-69
2023/11/07 13:47:13;;;;;;;0.80;0.60;;;10.60;99.90;;;;;;4972040;28;20205;-69
2023/11/07 13:49:40;;;;;;;1.17;0.80;;;10.50;99.90;;;;;;4972245;28;20630;-70
2023/11/07 13:52:07;;;;;;;0.80;0.70;;;10.40;99.90;;;;;;4972021;28;20605;-70
2023/11/07 13:54:34;;;;;;;0.80;0.70;;;10.30;99.90;;;;;;4971989;28;20291;-70
2023/11/07 13:57:01;;;;;;;0.80;0.60;;;10.20;99.90;;;;;;4971404;28;20598;-69
2023/11/07 13:59:29;;;;;;;0.90;0.80;;;10.10;99.90;;;;;;4972416;28;20204;-68
2023/11/07 14:01:56;;;;;;;1.13;0.70;;;10.10;99.90;;;;;;4971075;28;20723;-68
2023/11/07 14:04:22;;;;;;;0.80;0.70;;;10.00;99.90;;;;;;4971086;28;20204;-69
2023/11/07 14:06:49;;;;;;;0.90;0.70;;;10.00;99.90;;;;;;4971691;28;20214;-69
2023/11/07 14:09:16;;;;;;;0.85;0.70;;;10.00;99.90;;;;;;4971646;28;20210;-68
2023/11/07 14:11:43;;;;;;;0.82;0.70;;;10.00;99.90;;;;;;4967907;28;20231;-67
2023/11/07 14:14:10;;;;;;;0.80;0.70;;;9.90;99.90;;;;;;4971651;28;20308;-68
2023/11/07 14:16:38;;;;;;;1.00;0.80;;;9.90;99.90;;;;;;4971857;28;20219;-67
2023/11/07 14:19:07;;;;;;;0.80;0.70;;;9.90;99.90;;;;;;4971578;28;20258;-67
2023/11/07 14:21:34;;;;;;;1.13;0.70;;;9.80;99.90;;;;;;4971980;28;20700;-70
2023/11/07 14:24:01;;;;;;;0.90;0.80;;;9.90;99.90;;;;;;4971733;28;20208;-71
2023/11/07 14:26:28;;;;;;;1.27;1.02;;;9.80;99.90;;;;;;4972471;28;20199;-71
2023/11/07 14:28:55;;;;;;;0.90;0.70;;;9.90;99.90;;;;;;4975519;28;20866;-72
2023/11/07 14:31:22;;;;;;;0.80;0.70;;;9.80;99.90;;;;;;4974508;28;20224;-71
2023/11/07 14:33:50;;;;;;;0.77;0.60;;;9.80;99.90;;;;;;4972356;28;20274;-70
2023/11/07 14:36:17;;;;;;;0.80;0.70;;;9.80;99.90;;;;;;4971193;28;20208;-70
2023/11/07 14:38:44;;;;;;;1.00;0.80;;;9.80;99.90;;;;;;4971923;28;20213;-70
2023/11/07 14:41:11;;;;;;;0.80;0.70;;;9.80;99.90;;;;;;4971666;28;20227;-70
2023/11/07 14:43:38;;;;;;;0.93;0.82;;;9.80;99.90;;;;;;4971351;28;20211;-70
2023/11/07 14:46:05;;;;;;;1.00;0.90;;;9.80;99.90;;;;;;4971499;28;20255;-71
2023/11/07 14:48:32;;;;;;;0.80;0.70;;;9.80;99.90;;;;;;4971999;28;20208;-72
2023/11/07 14:51:00;;;;;;;0.80;0.70;;;9.70;99.90;;;;;;4974315;28;20224;-71
2023/11/07 14:53:27;;;;;;;0.80;0.70;;;9.60;99.90;;;;;;4972992;28;20240;-72
2023/11/07 14:55:55;;;;;;;0.90;0.70;;;9.60;99.90;;;;;;4972710;28;20208;-71
2023/11/07 14:58:22;;;;;;;0.80;0.68;;;9.60;99.90;;;;;;4974012;28;20211;-70
2023/11/07 15:00:49;;;;;;;0.80;0.70;;;9.50;99.90;;;;;;4971952;28;20224;-72
2023/11/07 15:03:17;;;;;;;0.80;0.70;;;9.50;99.90;;;;;;4971637;28;20208;-70
2023/11/07 15:05:44;;;;;;;0.80;0.70;;;9.50;99.90;;;;;;4969668;28;20212;-71
2023/11/07 15:08:12;;;;;;;0.80;0.70;;;9.40;99.90;;;;;;4973627;28;20224;-69
2023/11/07 15:10:39;;;;;;;0.90;0.70;;;9.40;99.90;;;;;;4969134;28;20228;-70
2023/11/07 15:13:07;;;;;;;0.98;0.70;;;9.40;99.90;;;;;;4971865;28;20223;-70
2023/11/07 15:15:34;;;;;;;0.80;0.70;;;9.30;99.90;;;;;;4974018;28;20216;-70
2023/11/07 15:18:03;;;;;;;0.80;0.70;;;9.30;99.90;;;;;;4974801;28;20212;-70
2023/11/07 15:20:31;;;;;;;1.15;1.05;;;9.30;99.90;;;;;;4975200;28;20231;-70
2023/11/07 15:23:00;;;;;;;1.38;0.95;;;9.20;99.90;;;;;;4974573;28;20252;-69
2023/11/07 15:25:30;;;;;;;1.52;1.00;;;9.10;99.90;;;;;;4974012;28;20218;-69
2023/11/07 15:27:58;;;;;;;1.15;1.05;;;9.10;99.90;;;;;;4974144;28;20216;-69
2023/11/07 15:30:26;;;;;;;1.02;0.93;;;9.10;99.90;;;;;;4974759;28;20231;-69
2023/11/07 15:32:54;;;;;;;1.38;0.80;;;9.00;99.90;;;;;;4974506;28;20240;-69
2023/11/07 15:35:22;;;;;;;0.80;0.70;;;9.00;99.90;;;;;;4971486;28;20208;-69
2023/11/07 15:37:49;;;;;;;0.90;0.80;;;8.90;99.90;;;;;;4974442;28;20215;-69
2023/11/07 15:40:17;;;;;;;0.80;0.70;;;8.90;99.90;;;;;;4974386;28;20219;-68
2023/11/07 15:42:46;;;;;;;1.60;1.00;;;8.80;99.90;;;;;;4970041;28;20200;-69
2023/11/07 15:45:14;;;;;;;0.80;0.70;;;8.70;99.90;;;;;;4974520;28;20236;-68
2023/11/07 15:47:42;;;;;;;1.10;1.00;;;8.70;99.90;;;;;;4974321;28;20227;-68
2023/11/07 15:50:14;;;;;;;0.98;0.88;;;8.70;99.90;;;;;;4974455;28;20204;-70
2023/11/07 15:52:40;;;;;;;1.13;0.85;;;8.60;99.90;;;;;;4974998;28;20266;-70
2023/11/07 15:55:10;;;;;;;1.35;0.95;;;8.60;99.90;;;;;;4974373;28;20223;-69
2023/11/07 15:57:38;;;;;;;1.00;0.80;;;8.60;99.90;;;;;;4974147;28;20665;-69
2023/11/07 16:00:10;;;;;;;1.02;0.90;;;8.50;99.90;;;;;;4975272;28;20215;-69
2023/11/07 16:02:37;;;;;;;0.80;0.80;;;8.50;99.90;;;;;;4975002;28;20228;-69
2023/11/07 16:05:05;;;;;;;1.80;1.00;;;8.50;99.90;;;;;;4975042;28;20235;-69
2023/11/07 16:07:32;;;;;;;1.00;0.80;;;8.40;99.90;;;;;;4972789;28;20528;-70
2023/11/07 16:09:59;;;;;;;1.10;0.88;;;8.40;99.90;;;;;;4969286;28;20471;-67
2023/11/07 16:12:25;;;;;;;0.90;0.80;;;8.40;99.90;;;;;;4971620;28;20235;-70
2023/11/07 16:14:52;;;;;;;1.20;0.90;;;8.40;99.90;;;;;;4973067;28;20717;-70
2023/11/07 16:17:20;;;;;;;0.80;0.75;;;8.40;99.90;;;;;;4972148;28;20485;-70
2023/11/07 16:19:47;;;;;;;0.90;0.70;;;8.40;99.90;;;;;;4973447;28;20215;-70
2023/11/07 16:22:14;;;;;;;1.10;0.82;;;8.40;99.90;;;;;;4972079;28;20220;-70
2023/11/07 16:24:40;;;;;;;1.00;0.80;;;8.40;99.90;;;;;;4972373;28;20585;-70
2023/11/07 16:27:08;;;;;;;1.35;0.80;;;8.40;99.90;;;;;;4970427;28;20208;-69
2023/11/07 16:29:34;;;;;;;3.10;1.20;;;8.30;99.90;;;;;;4972540;28;20239;-70
2023/11/07 16:32:01;;;;;;;1.10;0.80;;;8.30;99.90;;;;;;4972369;28;20262;-70
2023/11/07 16:34:30;;;;;;;1.35;1.00;;;8.20;99.90;;;;;;4972124;28;20214;-69
2023/11/07 16:36:58;;;;;;;0.80;0.73;;;8.20;99.90;;;;;;4972286;28;20207;-70
2023/11/07 16:39:26;;;;;;;1.00;0.80;;;8.10;99.90;;;;;;4970757;28;20232;-70
2023/11/07 16:41:54;;;;;;;1.10;0.90;;;8.10;99.90;;;;;;4974016;28;20242;-70
2023/11/07 16:44:25;;;;;;;1.35;0.80;;;8.00;99.90;;;;;;4973511;28;20576;-69
2023/11/07 16:46:53;;;;;;;1.60;1.20;;;8.00;99.90;;;;;;4974343;28;20202;-69
2023/11/07 16:49:20;;;;;;;1.10;0.90;;;7.90;99.90;;;;;;4972983;28;20291;-70
2023/11/07 16:51:48;;;;;;;1.17;0.90;;;7.80;99.90;;;;;;4973398;28;20220;-70
2023/11/07 16:54:14;;;;;;;2.25;1.55;;;7.80;99.90;;;;;;4972917;28;20223;-70
2023/11/07 16:56:41;;;;;;;2.22;2.03;;;7.70;99.90;;;;;;4973067;28;20204;-70
2023/11/07 16:59:08;;;;;;;1.55;1.45;;;7.70;99.90;;;;;;4969064;28;20215;-69
2023/11/07 17:01:35;;;;;;;1.83;1.10;;;7.60;99.90;;;;;;4972010;28;20708;-69
2023/11/07 17:04:01;;;;;;;1.27;0.93;;;7.60;99.90;;;;;;4972480;28;20225;-69
2023/11/07 17:06:28;;;;;;;1.02;0.93;;;7.50;99.90;;;;;;4972038;28;20211;-69
2023/11/07 17:08:56;;;;;;;1.55;0.90;;;7.50;99.90;;;;;;4971402;28;20211;-69
2023/11/07 17:11:23;;;;;;;1.20;1.00;;;7.40;99.90;;;;;;4969737;28;20255;-69
2023/11/07 17:13:50;;;;;;;2.00;1.00;;;7.40;99.90;;;;;;4969477;28;20325;-69
2023/11/07 17:16:16;;;;;;;0.80;0.80;;;7.30;99.90;;;;;;4969525;28;20218;-69